Larnaca, Cyprus

9:15 AM EET on February 08, 2016 (GMT +0200)
Bookshop YDROGEIOS | | Change Station
CLOSE
Current Station
Personal Weather Station
Location: Ορόκλινη, LARNAKA
Elevation: 7 ft
Nearby Weather Stations

Elev 7 ft 34.96 °N, 33.65 °E | Updated 15 minutes ago

Partly Cloudy
Partly Cloudy
53.2 °F
Feels Like 53.2 °F
N
5.8
Wind Variable Wind from WNW

Today
High -- | Low -- °F
--% Chance of Precip.
Yesterday
High -- | Low -- °F
Precip. -- in
Pressure 30.21 in
Visibility 6.2 miles
Clouds Few 5000 ft
Dew Point 32 °F
Humidity 44%
Rainfall 0.00 in
Snow Depth Not available.
6:38 AM 5:20 PM
Waning Crescent, 0% visible
METAR LCLK 080700Z 31004KT 280V340 9999 FEW050 12/02 Q1023 NOSIG
Pressure 30.21 in
Visibility 6.2 miles
Clouds Few 5000 ft
Dew Point 32 °F
Humidity 44%
Rainfall 0.00 in
Snow Depth Not available.
6:38 AM 5:20 PM
Waning Crescent, 0% visible
METAR LCLK 080700Z 31004KT 280V340 9999 FEW050 12/02 Q1023 NOSIG

10-Day Weather Forecast

Almanac

Astronomy

Feb. 08, 2016 Rise Set
Actual Time
Civil Twilight
Nautical Twilight
Astronomical Twilight
Moon
Length of Visible Light
Length of Day
Tomorrow will be .
, % of the Moon is Illuminated

Today's Extremes

Country Highs Country Lows

Community

WunderPhotos

Upload Photos

1,891,394 photos uploaded!

WunderBlog® & News

Nearby

Air Quality

  Air Quality AQ Index Pollutant
Not available.

Snow Depth

Station Depth Elevation

Earthquake Activity

City Distance Mag. Time & Date
Minimum magnitude displayed is 2.5.

Coastal Water Temperatures

Place Temperature

Stations

Nearby Weather Stations

Station Location Temp. Windchill Dew Point Humidity Wind Precip. Elev Updated Type